Time;durP1;ratioP1;P1;durP2;ratioP2;P2;SDS_P1;SDS_P2;PMS_P1;PMS_P2;Temp;Humidity;BMP_temperature;BMP_pressure;BME280_temperature;BME280_humidity;BME280_pressure;Samples;Min_cycle;Max_cycle;Signal;HPM_P1;HPM_P2
2022/06/08 00:02:21;;;;;;;9.45;5.85;;;;;;;15.06;100.00;100410.34;6254791;23;20032;-81
2022/06/08 00:04:48;;;;;;;9.35;5.70;;;;;;;15.10;100.00;100402.88;6255832;23;20031;-83
2022/06/08 00:07:15;;;;;;;12.20;6.10;;;;;;;15.03;100.00;100402.00;6256101;22;20020;-84
2022/06/08 00:09:41;;;;;;;7.00;5.15;;;;;;;15.05;100.00;100416.63;6256440;23;20048;-83
2022/06/08 00:12:11;;;;;;;10.13;5.70;;;;;;;15.05;100.00;100407.88;6255357;23;20023;-83
2022/06/08 00:14:38;;;;;;;9.95;5.60;;;;;;;15.06;100.00;100405.06;6255482;23;20020;-84
2022/06/08 00:17:07;;;;;;;8.65;5.40;;;;;;;15.13;100.00;100402.44;6255133;22;20016;-84
2022/06/08 00:19:34;;;;;;;11.20;5.70;;;;;;;15.16;100.00;100402.06;6255463;23;20008;-83
2022/06/08 00:22:00;;;;;;;10.35;5.18;;;;;;;15.16;100.00;100402.06;6255522;23;20024;-83
2022/06/08 00:24:28;;;;;;;7.53;5.75;;;;;;;15.16;100.00;100407.34;6255406;23;20024;-82
2022/06/08 00:26:54;;;;;;;11.88;5.40;;;;;;;15.13;100.00;100403.28;6255762;22;20017;-84
2022/06/08 00:29:23;;;;;;;11.30;5.57;;;;;;;15.09;100.00;100395.97;6255309;23;20008;-84
2022/06/08 00:31:49;;;;;;;8.15;5.63;;;;;;;15.14;100.00;100404.09;6255179;23;20542;-84
2022/06/08 00:34:17;;;;;;;7.90;5.38;;;;;;;15.08;100.00;100396.97;6255800;23;20034;-82
2022/06/08 00:36:43;;;;;;;9.82;6.18;;;;;;;15.12;100.00;100392.94;6255325;22;20452;-82
2022/06/08 00:39:10;;;;;;;8.13;5.75;;;;;;;15.16;100.00;100391.53;6256179;23;20059;-83
2022/06/08 00:41:44;;;;;;;12.73;5.80;;;;;;;15.17;100.00;100383.44;6262268;23;20055;-81
2022/06/08 00:44:16;;;;;;;9.15;6.43;;;;;;;15.18;100.00;100387.69;6255084;23;20024;-82
2022/06/08 00:46:45;;;;;;;11.38;6.00;;;;;;;15.14;100.00;100383.00;6255546;22;20024;-82
2022/06/08 00:49:20;;;;;;;9.02;5.38;;;;;;;15.18;100.00;100373.72;6256134;23;20356;-85
2022/06/08 00:51:47;;;;;;;6.93;5.40;;;;;;;15.16;100.00;100373.09;6256146;23;20115;-83
2022/06/08 00:54:22;;;;;;;9.38;5.88;;;;;;;15.16;100.00;100367.81;6256704;23;20020;-83
2022/06/08 00:56:53;;;;;;;12.57;5.65;;;;;;;15.18;100.00;100368.44;6254740;22;20028;-84
2022/06/08 00:59:20;;;;;;;11.00;5.72;;;;;;;15.10;100.00;100365.97;6257039;23;20028;-84
2022/06/08 01:01:48;;;;;;;7.38;5.20;;;;;;;15.04;100.00;100364.09;6255884;23;20087;-84
2022/06/08 01:04:17;;;;;;;9.02;5.40;;;;;;;15.00;100.00;100357.56;6254677;23;20468;-85
2022/06/08 01:06:55;;;;;;;11.38;5.43;;;;;;;14.96;100.00;100366.88;6257314;22;20020;-85
2022/06/08 01:09:27;;;;;;;12.57;6.70;;;;;;;14.93;100.00;100355.72;6263674;23;20027;-84
2022/06/08 01:11:58;;;;;;;11.90;6.35;;;;;;;14.85;100.00;100347.94;6264353;23;20031;-85
2022/06/08 01:14:26;;;;;;;18.50;5.88;;;;;;;14.88;100.00;100359.91;6262990;23;20020;-85
2022/06/08 01:16:59;;;;;;;12.35;6.10;;;;;;;14.88;100.00;100358.09;6254518;22;20035;-85
2022/06/08 01:19:27;;;;;;;13.45;6.10;;;;;;;14.93;100.00;100355.72;6251512;23;20024;-86
2022/06/08 01:21:58;;;;;;;8.50;6.22;;;;;;;14.97;100.00;100350.06;6248755;23;20024;-85
2022/06/08 01:24:27;;;;;;;10.45;6.40;;;;;;;14.91;100.00;100347.19;6249860;23;20329;-85
2022/06/08 01:27:29;;;;;;;10.88;6.05;;;;;;;14.87;100.00;100335.38;6257503;22;20039;-85
2022/06/08 01:30:16;;;;;;;11.60;6.38;;;;;;;14.88;100.00;100337.03;6163773;23;20057;-85
2022/06/08 01:33:23;;;;;;;14.10;6.15;;;;;;;14.85;100.00;100337.41;6250849;23;20200;-84
2022/06/08 01:36:02;;;;;;;11.85;6.18;;;;;;;14.92;100.00;100340.91;6255375;22;20024;-85
2022/06/08 01:38:39;;;;;;;10.32;5.80;;;;;;;14.90;100.00;100342.91;6255788;23;20020;-84
2022/06/08 01:41:35;;;;;;;11.48;6.43;;;;;;;14.92;100.00;100333.00;6256494;23;20024;-85
2022/06/08 01:44:15;;;;;;;14.88;6.40;;;;;;;14.93;100.00;100334.63;6245205;23;20024;-85
2022/06/08 01:46:52;;;;;;;13.98;6.22;;;;;;;14.81;100.00;100328.25;6255963;22;20330;-83
2022/06/08 01:49:27;;;;;;;13.32;6.63;;;;;;;14.76;100.00;100333.25;6256304;23;20024;-84
2022/06/08 01:52:12;;;;;;;8.65;6.15;;;;;;;14.66;100.00;100319.59;6258011;23;20020;-84
2022/06/08 01:54:58;;;;;;;13.45;6.35;;;;;;;14.59;100.00;100326.66;6258483;23;20028;-83
2022/06/08 01:57:39;;;;;;;11.32;5.90;;;;;;;14.47;100.00;100318.44;6257630;22;20047;-83
2022/06/08 02:00:09;;;;;;;10.70;6.38;;;;;;;14.44;100.00;100324.09;6256352;23;20024;-84
2022/06/08 02:02:43;;;;;;;12.23;6.47;;;;;;;14.41;100.00;100320.97;6257421;23;20008;-82
2022/06/08 02:05:18;;;;;;;10.13;6.63;;;;;;;14.32;100.00;100316.84;6259208;23;20035;-83
2022/06/08 02:07:49;;;;;;;12.43;6.70;;;;;;;14.27;100.00;100301.63;6256902;22;20350;-83
2022/06/08 02:10:38;;;;;;;8.55;6.68;;;;;;;14.11;100.00;100281.66;6247467;22;20016;-85
2022/06/08 02:13:15;;;;;;;9.40;6.47;;;;;;;14.23;100.00;100300.34;6249125;23;20028;-81
2022/06/08 02:16:07;;;;;;;13.40;6.55;;;;;;;14.14;100.00;100283.09;6248165;23;20028;-81
2022/06/08 02:18:54;;;;;;;14.02;6.65;;;;;;;13.98;100.00;100260.44;6249512;22;20491;-82
2022/06/08 02:24:42;;;;;;;14.40;6.78;;;;;;;14.05;100.00;100276.31;6249258;23;20411;-82
2022/06/08 02:27:16;;;;;;;13.68;6.50;;;;;;;13.94;100.00;100259.19;6248241;23;20020;-83
2022/06/08 02:29:58;;;;;;;9.88;6.43;;;;;;;14.11;100.00;100273.75;6250241;22;20074;-81
2022/06/08 02:35:28;;;;;;;12.43;7.10;;;;;;;13.94;100.00;100259.19;6254679;23;20295;-82
2022/06/08 02:38:02;;;;;;;13.45;6.82;;;;;;;13.98;100.00;100254.38;6254374;23;20085;-84
2022/06/08 02:40:41;;;;;;;15.57;7.18;;;;;;;13.98;100.00;100264.91;6254497;22;20040;-85
2022/06/08 02:43:22;;;;;;;14.45;7.38;;;;;;;13.86;100.00;100239.09;6253563;23;20027;-82
2022/06/08 02:46:01;;;;;;;10.73;6.60;;;;;;;13.93;100.00;100252.31;6254270;23;20024;-83
2022/06/08 02:48:32;;;;;;;11.57;6.90;;;;;;;13.75;100.00;100229.03;6253213;22;20111;-82
2022/06/08 02:51:09;;;;;;;8.40;7.13;;;;;;;13.89;100.00;100265.00;6254119;23;20449;-82
2022/06/08 02:53:59;;;;;;;11.00;7.13;;;;;;;13.86;100.00;100261.94;6255058;23;20153;-83
2022/06/08 02:56:54;;;;;;;11.25;7.57;;;;;;;13.77;100.00;100252.53;6249509;23;20020;-84
2022/06/08 02:59:36;;;;;;;12.60;7.28;;;;;;;13.80;100.00;100246.91;6254394;22;20050;-83
2022/06/08 03:02:11;;;;;;;11.50;6.45;;;;;;;13.79;100.00;100258.41;6255080;23;20043;-83
2022/06/08 03:04:48;;;;;;;13.18;6.75;;;;;;;13.73;100.00;100251.28;6254527;23;20023;-83
2022/06/08 03:07:19;;;;;;;15.75;7.10;;;;;;;13.58;100.00;100232.91;6256020;23;20024;-83
2022/06/08 03:09:48;;;;;;;13.70;6.75;;;;;;;13.61;100.00;100230.75;6254604;22;20024;-83
2022/06/08 03:12:27;;;;;;;9.63;6.97;;;;;;;13.67;100.00;100242.34;6255556;23;20465;-83
2022/06/08 03:15:01;;;;;;;10.75;7.43;;;;;;;13.51;100.00;100219.69;6255220;23;20024;-84
2022/06/08 03:17:43;;;;;;;9.23;7.47;;;;;;;13.53;100.00;100241.34;6255450;23;20020;-84
2022/06/08 03:20:11;;;;;;;19.45;7.65;;;;;;;13.63;100.00;100240.25;6254029;22;20020;-81
2022/06/08 03:22:38;;;;;;;10.32;7.25;;;;;;;13.64;100.00;100241.88;6256226;23;20362;-81
2022/06/08 03:25:09;;;;;;;12.68;7.97;;;;;;;13.57;100.00;100229.47;6255049;23;20020;-82
2022/06/08 03:27:37;;;;;;;12.23;7.75;;;;;;;13.77;100.00;100231.50;6255721;23;20023;-81
2022/06/08 03:30:07;;;;;;;15.82;7.65;;;;;;;13.86;100.00;100230.38;6255076;22;20020;-81
2022/06/08 03:32:34;;;;;;;10.48;7.65;;;;;;;14.02;100.00;100242.47;6256034;23;20352;-84
2022/06/08 03:35:01;;;;;;;14.00;7.95;;;;;;;13.95;100.00;100239.78;6255396;23;20024;-81
2022/06/08 03:37:30;;;;;;;9.95;7.43;;;;;;;14.05;100.00;100252.63;6256068;23;20480;-82
2022/06/08 03:40:00;;;;;;;9.60;7.95;;;;;;;14.14;100.00;100260.22;6255427;22;20065;-84
2022/06/08 03:42:33;;;;;;;10.45;8.10;;;;;;;14.12;100.00;100233.28;6257314;23;20449;-83
2022/06/08 03:45:04;;;;;;;9.27;7.25;;;;;;;14.10;100.00;100231.84;6257750;23;20330;-84
2022/06/08 03:47:37;;;;;;;11.48;7.18;;;;;;;14.04;100.00;100237.84;6254959;23;20020;-82
2022/06/08 03:50:10;;;;;;;11.63;7.88;;;;;;;13.94;100.00;100219.75;6254562;22;20036;-83
2022/06/08 03:52:40;;;;;;;;;;;;;;;14.29;100.00;100255.69;6255968;23;20511;-84
2022/06/08 03:55:12;;;;;;;11.50;7.90;;;;;;;14.10;100.00;100232.66;6255426;23;20344;-83
2022/06/08 03:57:44;;;;;;;11.07;7.68;;;;;;;14.19;100.00;100249.09;6255801;23;20051;-83
2022/06/08 04:00:12;;;;;;;11.85;7.53;;;;;;;14.13;100.00;100237.53;6258288;22;20058;-82
2022/06/08 04:02:41;;;;;;;14.30;7.18;;;;;;;14.20;100.00;100248.09;6257075;23;20024;-81
2022/06/08 04:05:09;;;;;;;10.57;7.30;;;;;;;14.36;100.00;100249.66;6254075;23;20035;-81
2022/06/08 04:07:36;;;;;;;7.22;6.50;;;;;;;14.56;100.00;100242.78;6254593;23;20024;-83
2022/06/08 04:10:03;;;;;;;12.85;6.80;;;;;;;14.49;100.00;100244.53;6255435;22;20024;-82
2022/06/08 04:12:38;;;;;;;9.80;6.85;;;;;;;14.47;100.00;100243.91;6254495;23;20305;-84
2022/06/08 04:15:05;;;;;;;12.93;6.82;;;;;;;14.41;100.00;100234.97;6251895;23;20461;-84
2022/06/08 04:17:32;;;;;;;11.13;6.07;;;;;;;14.51;100.00;100237.28;6253459;23;20020;-83
2022/06/08 04:20:00;;;;;;;12.30;6.47;;;;;;;14.51;100.00;100248.63;6252250;22;20048;-82
2022/06/08 04:22:31;;;;;;;13.57;6.68;;;;;;;14.49;100.00;100248.00;6253173;23;20086;-83
2022/06/08 04:24:58;;;;;;;12.32;6.05;;;;;;;14.58;100.00;100251.31;6253532;23;20468;-82
2022/06/08 04:27:26;;;;;;;12.48;6.20;;;;;;;14.55;100.00;100252.50;6258397;23;20020;-82
2022/06/08 04:29:53;;;;;;;10.88;7.00;;;;;;;14.61;100.00;100245.66;6256333;22;20397;-82
2022/06/08 04:32:21;;;;;;;9.93;6.45;;;;;;;14.63;100.00;100254.19;6253696;23;20050;-83
2022/06/08 04:34:48;;;;;;;14.65;8.05;;;;;;;14.64;100.00;100249.72;6253604;23;20472;-83
2022/06/08 04:37:16;;;;;;;8.52;6.53;;;;;;;14.73;100.00;100252.00;6254530;23;20023;-83
2022/06/08 04:39:42;;;;;;;9.35;5.85;;;;;;;14.80;100.00;100247.59;6254180;22;20110;-83
2022/06/08 04:42:09;;;;;;;8.43;5.57;;;;;;;14.86;100.00;100238.94;6255107;23;20024;-81
2022/06/08 04:44:36;;;;;;;10.73;6.20;;;;;;;14.90;100.00;100237.53;6254093;23;20459;-84
2022/06/08 04:47:08;;;;;;;11.50;5.97;;;;;;;14.93;100.00;100234.50;6254831;23;20086;-83
2022/06/08 04:49:41;;;;;;;11.50;5.65;;;;;;;14.97;100.00;100218.31;6250657;22;20066;-84
2022/06/08 04:52:10;;;;;;;10.77;5.78;;;;;;;15.11;100.00;100233.19;6254839;23;20118;-85
2022/06/08 04:54:46;;;;;;;11.27;5.80;;;;;;;15.40;100.00;100230.28;6253479;23;20023;-85
2022/06/08 04:57:14;;;;;;;8.65;5.50;;;;;;;15.41;99.73;100221.38;6253330;23;20043;-84
2022/06/08 04:59:41;;;;;;;7.32;5.15;;;;;;;15.73;98.62;100224.31;6253029;22;20030;-82
2022/06/08 05:05:04;;;;;;;9.23;4.88;;;;;;;16.57;95.08;100211.38;6226801;22;20350;-89
2022/06/08 05:07:30;;;;;;;7.25;5.25;;;;;;;16.99;92.47;100220.69;6223554;23;20020;-90
2022/06/08 05:09:58;;;;;;;7.03;4.57;;;;;;;17.48;91.05;100217.44;6221304;23;20083;-90
2022/06/08 05:12:26;;;;;;;6.22;4.70;;;;;;;17.99;87.52;100207.78;6220783;23;20028;-90
2022/06/08 05:14:53;;;;;;;5.43;4.50;;;;;;;17.74;86.77;100213.06;6220149;23;20028;-87
2022/06/08 05:17:19;;;;;;;6.75;4.53;;;;;;;17.46;88.12;100200.97;6220336;23;20021;-87
2022/06/08 05:19:46;;;;;;;6.63;4.20;;;;;;;17.52;87.54;100196.66;6220319;23;20032;-89
2022/06/08 05:22:44;;;;;;;8.38;4.60;;;;;;;17.08;89.66;100202.75;6221251;23;20068;-90
2022/06/08 05:25:15;;;;;;;8.77;4.72;;;;;;;16.93;90.88;100205.66;6219011;23;20079;-90
2022/06/08 05:27:42;;;;;;;6.85;4.78;;;;;;;16.68;92.28;100197.56;6220603;23;20017;-90
2022/06/08 05:30:10;;;;;;;6.18;4.88;;;;;;;16.38;93.41;100193.72;6220311;23;20496;-90
2022/06/08 05:32:37;;;;;;;7.22;4.53;;;;;;;16.37;93.84;100186.81;6220299;23;20056;-90
2022/06/08 05:35:05;;;;;;;10.10;4.85;;;;;;;16.21;94.30;100180.94;6220506;23;20027;-90
2022/06/08 05:37:31;;;;;;;12.32;5.05;;;;;;;16.34;94.44;100179.31;6221299;23;20025;-89
2022/06/08 05:39:58;;;;;;;5.95;4.70;;;;;;;16.40;94.73;100178.50;6221283;23;20028;-88
2022/06/08 05:42:26;;;;;;;5.82;4.50;;;;;;;16.45;94.04;100170.78;6219803;22;20031;-90
2022/06/08 05:44:53;;;;;;;6.45;4.68;;;;;;;16.33;94.33;100173.22;6220680;23;20020;-89
2022/06/08 05:47:20;;;;;;;5.90;4.28;;;;;;;16.64;94.00;100167.28;6220473;23;20019;-89
2022/06/08 05:49:46;;;;;;;7.25;4.70;;;;;;;16.80;91.75;100168.69;6222798;22;20016;-92
2022/06/08 05:52:17;;;;;;;7.55;5.13;;;;;;;17.18;90.14;100166.09;6222618;23;20017;-91
2022/06/08 05:54:44;;;;;;;8.07;4.35;;;;;;;17.23;90.62;100161.00;6219316;23;20020;-89
2022/06/08 06:01:17;;;;;;;9.57;4.88;;;;;;;17.16;90.63;100152.28;6222469;23;20114;-90
2022/06/08 06:03:45;;;;;;;5.82;4.78;;;;;;;17.00;90.05;100163.34;6219880;23;20025;-91
2022/06/08 06:06:21;;;;;;;7.20;4.60;;;;;;;16.81;90.71;100173.78;6221864;23;20432;-89
2022/06/08 06:09:00;;;;;;;6.03;4.72;;;;;;;16.87;91.30;100159.72;6221146;23;20020;-91
2022/06/08 06:24:58;;;;;;;9.10;4.90;;;;;;;16.81;92.47;100155.28;6218674;22;20028;-81
2022/06/08 06:27:30;;;;;;;6.20;4.82;;;;;;;16.91;91.51;100123.13;6223152;23;20025;-82
2022/06/08 06:29:57;;;;;;;8.52;4.97;;;;;;;17.09;91.54;100140.94;6223729;23;20434;-82
2022/06/08 06:32:29;;;;;;;9.98;5.03;;;;;;;17.14;91.46;100127.88;6223959;23;20067;-82
2022/06/08 06:35:05;;;;;;;7.17;4.80;;;;;;;17.21;91.42;100149.81;6221763;23;20044;-82
2022/06/08 06:37:34;;;;;;;9.15;4.60;;;;;;;17.20;89.96;100127.84;6221482;23;20025;-84
2022/06/08 06:40:07;;;;;;;6.15;4.57;;;;;;;17.43;88.98;100148.50;6220564;23;20039;-82
2022/06/08 06:42:34;;;;;;;8.45;4.30;;;;;;;17.73;88.82;100146.09;6222449;23;20429;-82
2022/06/08 06:45:01;;;;;;;7.55;4.43;;;;;;;18.05;86.93;100141.56;6226737;23;20052;-84
2022/06/08 06:47:28;;;;;;;7.30;4.78;;;;;;;18.85;83.75;100134.47;6229645;23;20031;-83
2022/06/08 06:49:56;;;;;;;8.15;4.40;;;;;;;19.03;82.65;100132.81;6231312;23;20031;-83
2022/06/08 06:52:23;;;;;;;7.97;4.13;;;;;;;19.57;80.18;100136.41;6229252;23;20024;-83
2022/06/08 06:54:50;;;;;;;10.30;4.22;;;;;;;19.28;78.33;100130.88;6224737;23;20025;-86
2022/06/08 06:57:20;;;;;;;6.10;4.35;;;;;;;19.47;76.63;100135.06;6223608;23;20025;-85
2022/06/08 06:59:47;;;;;;;5.18;3.88;;;;;;;19.28;77.11;100130.88;6224156;23;20048;-84
2022/06/08 07:02:22;;;;;;;6.18;3.80;;;;;;;19.34;77.11;100132.63;6225107;23;20381;-85
2022/06/08 07:04:52;;;;;;;12.63;4.18;;;;;;;19.19;77.89;100142.81;6224301;23;20024;-85
2022/06/08 07:07:21;;;;;;;5.43;3.70;;;;;;;18.19;80.96;100123.72;6225332;23;20031;-84
2022/06/08 07:09:50;;;;;;;7.95;3.88;;;;;;;18.38;81.30;100124.56;6220623;23;20021;-81
2022/06/08 07:12:19;;;;;;;5.22;3.75;;;;;;;18.44;81.05;100128.97;6221833;23;20020;-85
2022/06/08 07:14:47;;;;;;;6.82;4.18;;;;;;;18.37;81.88;100112.34;6223686;23;20072;-84
2022/06/08 07:17:14;;;;;;;9.70;4.20;;;;;;;18.53;81.09;100104.63;6224886;23;20021;-83
2022/06/08 07:19:41;;;;;;;5.85;4.22;;;;;;;18.32;82.68;100114.84;6226510;23;20021;-82
2022/06/08 07:22:12;;;;;;;6.75;4.35;;;;;;;18.66;82.03;100126.75;6228765;23;20024;-83
2022/06/08 07:24:40;;;;;;;7.10;4.00;;;;;;;18.15;84.16;100118.06;6225750;23;20021;-82
2022/06/08 07:27:14;;;;;;;7.70;4.05;;;;;;;18.21;83.61;100106.59;6222114;23;20067;-82
2022/06/08 07:29:50;;;;;;;5.70;4.03;;;;;;;18.20;82.95;100104.97;6224163;23;20404;-85
2022/06/08 07:36:10;;;;;;;8.18;4.13;;;;;;;18.05;84.09;100115.09;6175734;22;20361;-83
2022/06/08 07:45:40;;;;;;;7.30;4.00;;;;;;;17.96;85.22;100100.50;6197459;22;20005;-85
2022/06/08 07:50:51;;;;;;;6.38;4.07;;;;;;;18.45;84.38;100099.59;6265829;23;20078;-79
2022/06/08 07:53:18;;;;;;;12.00;4.72;;;;;;;18.21;83.92;100103.94;6261379;23;20024;-80
2022/06/08 07:55:45;;;;;;;8.05;4.18;;;;;;;18.37;83.96;100096.47;6259144;23;20024;-80
2022/06/08 07:58:17;;;;;;;13.43;4.43;;;;;;;19.21;81.51;100096.47;6267932;23;20043;-83
2022/06/08 08:00:47;;;;;;;;;;;;;;;20.29;78.80;100097.22;6270241;23;20020;-84
2022/06/08 08:03:24;;;;;;;26.90;6.85;;;;;;;20.86;74.94;100092.84;6259590;23;19972;-82
2022/06/08 08:05:51;;;;;;;7.32;3.72;;;;;;;20.60;72.84;100086.22;6256070;23;20031;-83
2022/06/08 08:08:19;;;;;;;8.63;3.80;;;;;;;21.02;71.80;100085.97;6256277;23;20020;-83
2022/06/08 08:10:48;;;;;;;8.30;3.60;;;;;;;21.84;68.90;100089.00;6256695;23;20020;-84
2022/06/08 08:13:18;;;;;;;6.30;3.17;;;;;;;21.50;68.98;100081.00;6255719;23;20035;-84
2022/06/08 08:15:46;;;;;;;7.43;3.78;;;;;;;22.58;67.59;100083.41;6255808;23;20050;-83
2022/06/08 08:18:13;;;;;;;8.75;3.80;;;;;;;22.73;64.42;100087.03;6254829;23;20028;-84
2022/06/08 08:20:40;;;;;;;7.97;3.40;;;;;;;22.52;65.86;100071.88;6255986;23;20054;-82
2022/06/08 08:23:12;;;;;;;5.18;3.50;;;;;;;22.75;63.50;100066.25;6255152;23;20068;-83
2022/06/08 08:25:42;;;;;;;5.78;3.17;;;;;;;21.42;67.15;100067.28;6255173;23;20020;-83
2022/06/08 08:28:14;;;;;;;5.95;3.35;;;;;;;22.11;66.09;100079.34;6254517;23;20024;-82
2022/06/08 08:30:46;;;;;;;4.18;3.30;;;;;;;23.05;64.49;100057.81;6254615;23;20043;-82
2022/06/08 08:33:16;;;;;;;4.95;3.17;;;;;;;24.41;57.86;100062.59;6254385;23;20035;-82
2022/06/08 08:35:44;;;;;;;7.78;2.88;;;;;;;24.69;58.04;100058.69;6255283;23;20024;-83
2022/06/08 08:38:11;;;;;;;5.55;3.22;;;;;;;25.64;54.32;100047.59;6253490;23;20016;-83
2022/06/08 08:40:51;;;;;;;11.07;4.05;;;;;;;25.29;54.25;100051.88;6254103;23;20078;-82
2022/06/08 08:43:21;;;;;;;7.13;3.17;;;;;;;23.84;56.04;100041.13;6254324;23;20023;-81
2022/06/08 08:46:22;;;;;;;4.90;3.33;;;;;;;24.91;55.92;100055.00;6253772;23;20024;-82
2022/06/08 08:49:03;;;;;;;5.60;3.30;;;;;;;25.35;55.35;100044.66;6253652;23;20016;-83
2022/06/08 08:51:38;;;;;;;6.95;3.60;;;;;;;25.46;52.00;100052.44;6254549;23;20020;-83
2022/06/08 08:54:24;;;;;;;6.30;3.20;;;;;;;25.90;52.02;100051.88;6255492;23;20383;-82
2022/06/08 08:57:00;;;;;;;7.60;3.60;;;;;;;26.21;50.00;100052.59;6253800;23;20055;-83
2022/06/08 08:59:33;;;;;;;7.63;3.30;;;;;;;25.41;54.28;100047.06;6252449;23;20078;-83
2022/06/08 09:02:01;;;;;;;4.90;3.28;;;;;;;24.89;54.43;100030.38;6253920;23;20305;-82
2022/06/08 09:04:32;;;;;;;6.78;3.35;;;;;;;24.90;52.72;100027.44;6252838;23;20027;-82
2022/06/08 09:07:04;;;;;;;7.82;3.03;;;;;;;25.25;52.27;100034.72;6251639;23;20024;-82
2022/06/08 09:09:36;;;;;;;9.27;3.50;;;;;;;25.66;51.49;100035.56;6252936;23;20097;-81
2022/06/08 09:12:03;;;;;;;5.72;3.20;;;;;;;25.41;50.56;100028.31;6253617;23;20301;-82
2022/06/08 09:14:46;;;;;;;4.60;2.90;;;;;;;24.78;53.90;100030.34;6254385;23;20079;-84
2022/06/08 09:17:20;;;;;;;6.25;2.97;;;;;;;24.26;55.28;100021.63;6254197;23;20086;-81
2022/06/08 09:19:49;;;;;;;7.43;3.38;;;;;;;24.26;54.31;100026.97;6253641;23;20027;-82
2022/06/08 09:22:26;;;;;;;6.40;3.42;;;;;;;24.27;55.29;100025.91;6253396;23;20024;-84
2022/06/08 09:24:57;;;;;;;6.88;3.72;;;;;;;24.46;53.43;100021.72;6253996;23;20031;-83
2022/06/08 09:27:28;;;;;;;9.27;3.33;;;;;;;23.71;56.43;100014.88;6252508;23;20024;-82
2022/06/08 09:30:18;;;;;;;5.50;3.03;;;;;;;23.22;58.06;100007.00;6253676;23;20020;-83
2022/06/08 09:32:49;;;;;;;7.50;3.33;;;;;;;23.92;56.24;100000.56;6252661;23;20254;-84
2022/06/08 09:42:13;;;;;;;6.40;3.40;;;;;;;23.94;54.63;99987.75;6075876;23;20029;-82
2022/06/08 09:45:27;;;;;;;7.65;3.40;;;;;;;24.26;53.25;99973.50;6101077;23;20022;-83
2022/06/08 10:01:19;;;;;;;8.75;3.55;;;;;;;22.21;59.78;99976.59;6095894;23;20597;-84
2022/06/08 10:04:18;;;;;;;7.63;3.38;;;;;;;22.06;62.21;99983.34;6223007;23;20031;-82
2022/06/08 10:06:55;;;;;;;14.70;4.40;;;;;;;21.72;66.26;99995.09;6251476;23;20020;-82
2022/06/08 10:09:27;;;;;;;9.57;3.95;;;;;;;21.32;70.21;99993.41;6251091;23;20046;-80
2022/06/08 10:12:07;;;;;;;11.73;3.72;;;;;;;21.01;71.63;99999.25;6250786;23;20024;-82
2022/06/08 10:14:44;;;;;;;11.63;3.60;;;;;;;20.75;70.95;99982.84;6251691;23;20027;-81
2022/06/08 10:17:16;;;;;;;13.23;4.22;;;;;;;20.55;72.71;99998.41;6253291;23;20024;-82
2022/06/08 10:19:54;;;;;;;8.50;3.15;;;;;;;20.74;72.29;99996.38;6251565;23;20086;-83
2022/06/08 10:22:24;;;;;;;8.65;3.92;;;;;;;20.60;72.29;100003.03;6251737;23;20081;-83
2022/06/08 10:24:59;;;;;;;10.80;3.50;;;;;;;20.39;73.67;100004.47;6252744;23;20059;-84
2022/06/08 10:27:31;;;;;;;8.60;3.50;;;;;;;20.54;74.13;100002.13;6251809;23;20024;-82
2022/06/08 10:30:10;;;;;;;9.65;3.78;;;;;;;20.36;76.31;100004.91;6255802;23;20054;-81
2022/06/08 10:32:44;;;;;;;8.75;3.80;;;;;;;20.17;76.38;99999.75;6250073;23;20055;-82
2022/06/08 10:35:24;;;;;;;11.38;4.00;;;;;;;20.24;77.61;99991.66;6249650;23;20024;-82
2022/06/08 10:37:52;;;;;;;8.52;4.07;;;;;;;20.03;77.88;100002.88;6249808;23;20024;-81
2022/06/08 10:40:22;;;;;;;7.45;3.60;;;;;;;19.99;79.73;99996.44;6249600;23;20078;-82
2022/06/08 10:42:54;;;;;;;12.48;4.35;;;;;;;19.93;80.50;100003.47;6248096;23;20497;-82
2022/06/08 10:45:44;;;;;;;9.60;4.10;;;;;;;19.98;81.98;100000.13;6249112;23;20396;-82
2022/06/08 10:48:44;;;;;;;9.68;4.00;;;;;;;20.07;82.81;99998.72;6248528;23;20078;-82
2022/06/08 10:51:36;;;;;;;9.57;4.30;;;;;;;20.13;81.43;100000.47;6249620;23;20024;-82
2022/06/08 10:56:55;;;;;;;9.02;4.13;;;;;;;20.04;82.04;100005.31;6252571;23;20039;-83
2022/06/08 10:59:25;;;;;;;7.78;4.20;;;;;;;20.05;83.02;100014.91;6252954;23;20016;-83
2022/06/08 11:02:16;;;;;;;7.88;3.75;;;;;;;20.08;78.92;100008.31;6255159;23;20067;-82
2022/06/08 11:04:58;;;;;;;7.13;3.53;;;;;;;19.91;74.66;100018.00;6255230;23;20386;-82
2022/06/08 11:07:27;;;;;;;7.43;3.88;;;;;;;19.93;75.37;100026.56;6254567;23;20024;-83
2022/06/08 11:09:59;;;;;;;9.15;3.97;;;;;;;19.52;75.17;100034.41;6255696;23;20469;-85
2022/06/08 11:12:58;;;;;;;8.02;3.33;;;;;;;19.39;75.59;100016.00;6253750;23;20067;-82
2022/06/08 11:15:40;;;;;;;4.63;2.78;;;;;;;19.39;76.11;100021.31;6255673;23;20054;-84
2022/06/08 11:18:17;;;;;;;8.43;3.23;;;;;;;19.37;76.85;100023.41;6260015;23;20024;-83
2022/06/08 11:20:48;;;;;;;6.28;3.40;;;;;;;19.48;77.52;100027.09;6254174;23;20418;-81
2022/06/08 11:23:22;;;;;;;6.82;3.22;;;;;;;19.31;77.95;100018.19;6253399;23;20079;-82
2022/06/08 11:25:52;;;;;;;6.85;3.75;;;;;;;19.46;80.27;100022.00;6254680;23;20054;-81
2022/06/08 11:28:39;;;;;;;9.98;3.63;;;;;;;19.28;79.29;100019.47;6256500;23;20100;-81
2022/06/08 11:31:11;;;;;;;10.70;3.78;;;;;;;19.22;77.58;100012.41;6256940;23;20103;-82
2022/06/08 11:33:54;;;;;;;7.53;3.30;;;;;;;19.45;76.57;100015.09;6252366;23;20024;-82
2022/06/08 11:36:48;;;;;;;5.15;2.70;;;;;;;19.50;77.05;100015.22;6251836;23;20452;-83
2022/06/08 11:39:26;;;;;;;7.43;3.83;;;;;;;19.38;76.31;100014.38;6250908;23;20023;-81
2022/06/08 11:42:02;;;;;;;6.70;3.25;;;;;;;19.34;76.61;100013.25;6252790;23;20062;-81
2022/06/08 11:44:36;;;;;;;7.50;3.40;;;;;;;19.25;76.24;100014.59;6252179;23;20048;-82
2022/06/08 11:47:12;;;;;;;6.50;3.35;;;;;;;19.18;76.70;100004.09;6253633;23;20047;-82
2022/06/08 11:49:42;;;;;;;6.50;3.08;;;;;;;18.85;78.45;100001.94;6252225;23;20496;-81
2022/06/08 11:52:28;;;;;;;5.47;3.22;;;;;;;19.05;78.83;100001.63;6252833;23;20074;-82
2022/06/08 11:55:25;;;;;;;7.47;3.10;;;;;;;18.89;78.27;100005.75;6252296;23;20024;-82
2022/06/08 11:57:56;;;;;;;7.35;3.75;;;;;;;18.89;79.35;99995.16;6251728;23;20020;-82
2022/06/08 12:00:30;;;;;;;10.77;3.47;;;;;;;19.16;77.88;99995.56;6253173;23;20020;-82
2022/06/08 12:03:02;;;;;;;9.75;3.88;;;;;;;19.16;78.17;100005.34;6253047;23;20052;-81
2022/06/08 12:05:36;;;;;;;5.40;3.38;;;;;;;19.42;78.73;100004.94;6252272;23;20031;-83
2022/06/08 12:08:15;;;;;;;6.65;3.40;;;;;;;19.10;79.84;99993.81;6252002;23;20356;-81
2022/06/08 12:10:47;;;;;;;5.38;3.20;;;;;;;19.25;79.74;99993.38;6252592;23;20020;-81
2022/06/08 12:13:20;;;;;;;8.38;3.67;;;;;;;19.18;81.07;99997.97;6253419;23;20023;-82
2022/06/08 12:15:58;;;;;;;7.90;3.38;;;;;;;19.36;79.36;99997.09;6253803;23;20081;-81
2022/06/08 12:18:59;;;;;;;6.85;3.05;;;;;;;19.04;80.02;99975.34;6253559;23;20020;-81
2022/06/08 12:21:30;;;;;;;9.63;3.90;;;;;;;19.27;80.10;99988.66;6253104;23;20461;-80
2022/06/08 12:24:21;;;;;;;5.65;3.42;;;;;;;19.32;79.77;99975.53;6252659;23;20034;-80
2022/06/08 12:27:17;;;;;;;6.82;4.03;;;;;;;19.22;80.10;99989.34;6252069;23;20025;-80
2022/06/08 12:29:53;;;;;;;5.55;3.58;;;;;;;19.16;82.15;99978.84;6251190;23;20020;-80
2022/06/08 12:32:27;;;;;;;8.40;4.07;;;;;;;19.29;81.23;99977.81;6251315;23;20362;-80
2022/06/08 12:35:21;;;;;;;8.38;3.75;;;;;;;19.22;81.66;99978.75;6251311;23;20024;-80
2022/06/08 12:38:12;;;;;;;6.88;3.40;;;;;;;19.35;79.82;99982.22;6250844;23;20311;-79
2022/06/08 12:40:49;;;;;;;5.80;3.00;;;;;;;19.53;79.97;99980.28;6251761;23;20500;-79
2022/06/08 12:43:22;;;;;;;5.05;3.20;;;;;;;19.64;78.40;99975.22;6251637;23;20027;-81
2022/06/08 12:46:26;;;;;;;5.53;3.10;;;;;;;19.49;79.51;99979.09;6252815;23;20028;-79
2022/06/08 12:52:00;;;;;;;7.30;3.75;;;;;;;19.81;78.82;99981.47;6256703;23;20549;-79
2022/06/08 12:54:31;;;;;;;9.20;3.45;;;;;;;19.74;80.36;99975.47;6252313;23;20024;-79
2022/06/08 12:57:02;;;;;;;7.22;3.58;;;;;;;19.84;77.63;99962.41;6251208;23;20345;-79
2022/06/08 12:59:38;;;;;;;5.22;3.38;;;;;;;19.85;77.85;99956.03;6252158;23;20024;-79